Time;durP1;ratioP1;P1;durP2;ratioP2;P2;SDS_P1;SDS_P2;PMS_P1;PMS_P2;Temp;Humidity;BMP_temperature;BMP_pressure;BME280_temperature;BME280_humidity;BME280_pressure;Samples;Min_cycle;Max_cycle;Signal;HPM_P1;HPM_P2
2021/09/19 00:00:15;;;;;;;12.35;10.98;;;;;;;;;;5011587;28;20058;-66
2021/09/19 00:02:41;;;;;;;12.90;11.15;;;;;;;;;;5011468;28;20061;-66
2021/09/19 00:05:09;;;;;;;11.93;10.27;;;;;;;;;;5010230;28;20050;-65
2021/09/19 00:07:36;;;;;;;12.57;10.55;;;;;;;;;;5011173;28;20104;-65
2021/09/19 00:10:08;;;;;;;13.25;11.60;;;;;;;;;;5011055;28;20050;-65
2021/09/19 00:12:35;;;;;;;13.40;12.00;;;;;;;;;;5011306;28;20447;-65
2021/09/19 00:15:02;;;;;;;14.48;12.52;;;;;;;;;;5011117;28;20108;-65
2021/09/19 00:17:28;;;;;;;14.23;12.40;;;;;;;;;;5010015;28;20582;-65
2021/09/19 00:19:55;;;;;;;13.45;12.05;;;;;;;;;;5009681;28;20463;-65
2021/09/19 00:22:21;;;;;;;14.80;12.73;;;;;;;;;;5010714;28;20104;-66
2021/09/19 00:24:48;;;;;;;16.45;13.73;;;;;;;;;;5010804;28;20463;-66
2021/09/19 00:27:15;;;;;;;14.02;12.02;;;;;;;;;;5011168;28;20097;-66
2021/09/19 00:29:41;;;;;;;17.20;12.80;;;;;;;;;;5010775;28;20045;-66
2021/09/19 00:32:08;;;;;;;15.85;12.38;;;;;;;;;;5010910;28;20402;-65
2021/09/19 00:34:34;;;;;;;16.13;13.48;;;;;;;;;;5010242;28;20069;-65
2021/09/19 00:37:01;;;;;;;13.43;11.93;;;;;;;;;;5010805;28;20534;-65
2021/09/19 00:39:28;;;;;;;14.77;12.68;;;;;;;;;;5010715;28;20057;-65
2021/09/19 00:41:54;;;;;;;16.42;12.77;;;;;;;;;;5010704;28;20773;-65
2021/09/19 00:44:26;;;;;;;16.17;13.55;;;;;;;;;;5010841;28;20096;-64
2021/09/19 00:46:53;;;;;;;14.55;12.57;;;;;;;;;;5010419;28;20049;-64
2021/09/19 00:49:20;;;;;;;16.95;14.02;;;;;;;;;;5010336;28;20053;-64
2021/09/19 00:51:47;;;;;;;15.90;13.88;;;;;;;;;;5009367;28;20331;-65
2021/09/19 00:54:14;;;;;;;17.48;13.68;;;;;;;;;;5010781;28;20062;-64
2021/09/19 00:56:41;;;;;;;15.23;12.10;;;;;;;;;;4993018;28;20049;-65
2021/09/19 00:59:08;;;;;;;15.75;12.57;;;;;;;;;;5010760;28;20050;-65
2021/09/19 01:01:35;;;;;;;15.05;12.93;;;;;;;;;;5009882;28;20108;-64
2021/09/19 01:04:02;;;;;;;14.85;12.70;;;;;;;;;;5012474;28;20065;-64
2021/09/19 01:06:29;;;;;;;15.27;11.90;;;;;;;;;;5029089;23;20467;-70
2021/09/19 01:08:56;;;;;;;14.02;12.07;;;;;;;;;;5000453;28;20108;-70
2021/09/19 01:11:23;;;;;;;17.23;13.35;;;;;;;;;;4999899;28;20046;-70
2021/09/19 01:13:50;;;;;;;13.75;12.18;;;;;;;;;;5000634;28;20058;-70
2021/09/19 01:16:18;;;;;;;14.82;12.23;;;;;;;;;;5000353;28;20043;-70
2021/09/19 01:18:46;;;;;;;16.45;12.45;;;;;;;;;;4993210;28;20054;-70
2021/09/19 01:21:15;;;;;;;14.63;12.02;;;;;;;;;;4992838;28;20046;-70
2021/09/19 01:23:58;;;;;;;16.10;12.93;;;;;;;;;;4992691;28;20472;-70
2021/09/19 01:26:25;;;;;;;;;;;;;;;;;;4993012;28;20050;-70
2021/09/19 01:28:52;;;;;;;14.82;11.85;;;;;;;;;;4992469;28;19948;-70
2021/09/19 01:31:19;;;;;;;17.98;13.02;;;;;;;;;;4992732;28;20053;-70
2021/09/19 01:33:45;;;;;;;15.57;12.50;;;;;;;;;;4992559;28;20137;-70
2021/09/19 01:36:13;;;;;;;15.23;12.15;;;;;;;;;;4992568;28;20100;-70
2021/09/19 01:38:40;;;;;;;15.60;12.07;;;;;;;;;;4992272;28;20054;-70
2021/09/19 01:41:07;;;;;;;14.60;11.77;;;;;;;;;;4992439;28;20101;-70
2021/09/19 01:43:33;;;;;;;14.73;12.30;;;;;;;;;;4993077;28;20046;-70
2021/09/19 01:46:01;;;;;;;12.68;11.30;;;;;;;;;;4992526;28;20054;-70
2021/09/19 01:48:36;;;;;;;14.48;12.00;;;;;;;;;;4992488;28;20050;-70
2021/09/19 01:51:04;;;;;;;18.30;12.57;;;;;;;;;;4992347;28;20113;-70
2021/09/19 01:53:31;;;;;;;14.30;11.13;;;;;;;;;;4992596;28;20054;-70
2021/09/19 01:55:57;;;;;;;15.38;12.32;;;;;;;;;;4992190;28;20050;-70
2021/09/19 01:58:25;;;;;;;20.05;13.68;;;;;;;;;;4992437;28;20100;-70
2021/09/19 02:00:55;;;;;;;15.50;12.77;;;;;;;;;;4991920;28;20050;-70
2021/09/19 02:03:22;;;;;;;14.65;11.73;;;;;;;;;;4994190;28;20109;-70
2021/09/19 02:05:49;;;;;;;15.43;12.25;;;;;;;;;;4992963;28;20051;-70
2021/09/19 02:08:16;;;;;;;15.07;11.57;;;;;;;;;;4993617;28;20062;-70
2021/09/19 02:10:43;;;;;;;15.63;12.52;;;;;;;;;;4993194;28;20121;-71
2021/09/19 02:13:09;;;;;;;16.33;12.32;;;;;;;;;;4993378;28;20457;-70
2021/09/19 02:15:36;;;;;;;16.27;13.57;;;;;;;;;;4992828;28;20050;-70
2021/09/19 02:18:03;;;;;;;16.33;11.90;;;;;;;;;;4992815;28;20062;-70
2021/09/19 02:20:29;;;;;;;15.18;12.10;;;;;;;;;;4992396;28;20046;-70
2021/09/19 02:22:56;;;;;;;14.30;11.60;;;;;;;;;;4992476;28;20050;-70
2021/09/19 02:25:22;;;;;;;15.23;12.00;;;;;;;;;;4992470;28;20104;-70
2021/09/19 02:27:49;;;;;;;13.07;11.27;;;;;;;;;;4993375;28;20112;-70
2021/09/19 02:30:16;;;;;;;15.27;11.35;;;;;;;;;;4995809;28;20113;-70
2021/09/19 02:32:43;;;;;;;14.00;11.25;;;;;;;;;;4995978;28;20054;-70
2021/09/19 02:35:10;;;;;;;15.05;11.85;;;;;;;;;;4995800;28;20054;-70
2021/09/19 02:37:37;;;;;;;14.52;12.32;;;;;;;;;;4995927;28;20042;-71
2021/09/19 02:40:05;;;;;;;12.73;10.75;;;;;;;;;;4995567;28;20141;-71
2021/09/19 02:42:32;;;;;;;13.77;11.73;;;;;;;;;;4995695;28;20097;-71
2021/09/19 02:44:59;;;;;;;16.40;11.55;;;;;;;;;;4995385;28;20050;-71
2021/09/19 02:47:26;;;;;;;14.23;11.77;;;;;;;;;;4995490;28;20045;-71
2021/09/19 02:49:52;;;;;;;17.60;13.88;;;;;;;;;;4995407;28;20505;-71
2021/09/19 02:52:19;;;;;;;17.90;13.20;;;;;;;;;;4995572;28;20109;-71
2021/09/19 02:54:45;;;;;;;17.83;13.15;;;;;;;;;;4995513;28;20054;-71
2021/09/19 02:57:12;;;;;;;15.27;12.18;;;;;;;;;;4995468;28;20101;-71
2021/09/19 02:59:38;;;;;;;15.10;11.15;;;;;;;;;;4995218;28;20054;-71
2021/09/19 03:02:06;;;;;;;15.15;12.20;;;;;;;;;;4995332;28;20050;-71
2021/09/19 03:04:34;;;;;;;16.08;12.27;;;;;;;;;;4995321;28;20046;-71
2021/09/19 03:07:00;;;;;;;18.92;12.43;;;;;;;;;;4994922;28;20492;-71
2021/09/19 03:09:27;;;;;;;15.35;11.95;;;;;;;;;;4995189;28;20054;-71
2021/09/19 03:11:54;;;;;;;16.58;13.40;;;;;;;;;;4995250;28;20053;-71
2021/09/19 03:14:20;;;;;;;16.17;12.00;;;;;;;;;;4995210;28;20124;-71
2021/09/19 03:16:47;;;;;;;15.25;12.20;;;;;;;;;;4994897;28;20046;-70
2021/09/19 03:19:13;;;;;;;13.85;11.55;;;;;;;;;;4994838;28;20054;-71
2021/09/19 03:21:40;;;;;;;14.73;11.82;;;;;;;;;;4994829;28;20559;-71
2021/09/19 03:24:07;;;;;;;16.38;13.13;;;;;;;;;;4994912;28;20050;-71
2021/09/19 03:26:33;;;;;;;16.15;12.65;;;;;;;;;;4994734;28;20559;-71
2021/09/19 03:29:00;;;;;;;16.88;13.13;;;;;;;;;;4994800;28;20509;-71
2021/09/19 03:31:26;;;;;;;18.13;12.50;;;;;;;;;;4994917;28;20046;-70
2021/09/19 03:33:53;;;;;;;16.75;12.23;;;;;;;;;;4994570;28;20505;-70
2021/09/19 03:36:20;;;;;;;16.63;12.23;;;;;;;;;;4994658;28;20046;-70
2021/09/19 03:38:47;;;;;;;16.38;12.18;;;;;;;;;;4994255;28;20109;-70
2021/09/19 03:41:14;;;;;;;14.20;11.63;;;;;;;;;;4994632;28;20471;-71
2021/09/19 03:43:42;;;;;;;14.60;12.30;;;;;;;;;;4994378;28;20050;-70
2021/09/19 03:46:09;;;;;;;14.02;11.98;;;;;;;;;;4994486;28;20054;-70
2021/09/19 03:48:35;;;;;;;15.60;12.23;;;;;;;;;;4994397;28;20056;-70
2021/09/19 03:51:02;;;;;;;15.20;12.45;;;;;;;;;;4994467;28;20108;-70
2021/09/19 03:53:29;;;;;;;14.90;10.95;;;;;;;;;;4961310;28;20089;-70
2021/09/19 03:55:55;;;;;;;14.18;11.63;;;;;;;;;;4994372;28;20054;-70
2021/09/19 03:58:22;;;;;;;15.95;11.15;;;;;;;;;;4994356;28;20105;-70
2021/09/19 04:00:49;;;;;;;14.90;11.20;;;;;;;;;;4993931;28;20564;-70
2021/09/19 04:03:16;;;;;;;14.20;11.60;;;;;;;;;;4994148;28;20089;-71
2021/09/19 04:05:42;;;;;;;14.88;11.90;;;;;;;;;;4993958;28;20100;-71
2021/09/19 04:08:13;;;;;;;17.65;11.57;;;;;;;;;;4994189;28;20070;-71
2021/09/19 04:10:40;;;;;;;15.25;11.82;;;;;;;;;;4993769;28;20109;-71
2021/09/19 04:13:07;;;;;;;15.05;11.15;;;;;;;;;;4994052;28;20053;-71
2021/09/19 04:15:33;;;;;;;15.65;11.00;;;;;;;;;;4993895;28;20520;-71
2021/09/19 04:18:00;;;;;;;17.23;11.82;;;;;;;;;;4993995;28;20047;-71
2021/09/19 04:20:26;;;;;;;13.00;11.48;;;;;;;;;;4993731;28;20054;-71
2021/09/19 04:22:53;;;;;;;11.73;10.18;;;;;;;;;;4993688;28;20101;-71
2021/09/19 04:25:20;;;;;;;16.48;12.15;;;;;;;;;;4993885;28;20054;-71
2021/09/19 04:27:46;;;;;;;14.27;11.35;;;;;;;;;;4976203;28;20548;-71
2021/09/19 04:30:13;;;;;;;15.15;12.63;;;;;;;;;;4993502;28;20538;-71
2021/09/19 04:32:42;;;;;;;15.75;12.55;;;;;;;;;;4993501;28;20096;-71
2021/09/19 04:35:09;;;;;;;16.63;11.95;;;;;;;;;;4993822;28;20054;-71
2021/09/19 04:37:36;;;;;;;15.55;12.75;;;;;;;;;;4993551;28;20076;-71
2021/09/19 04:40:07;;;;;;;15.70;12.30;;;;;;;;;;4993401;28;20057;-71
2021/09/19 04:42:33;;;;;;;16.27;11.77;;;;;;;;;;4993735;28;20464;-71
2021/09/19 04:45:00;;;;;;;14.82;11.82;;;;;;;;;;4993264;28;20116;-71
2021/09/19 04:47:27;;;;;;;15.10;11.70;;;;;;;;;;4993398;28;20055;-71
2021/09/19 04:49:53;;;;;;;14.52;11.65;;;;;;;;;;4992715;28;20058;-71
2021/09/19 04:52:20;;;;;;;14.38;11.15;;;;;;;;;;4993253;28;20050;-71
2021/09/19 04:54:47;;;;;;;18.10;12.13;;;;;;;;;;4993192;28;20050;-71
2021/09/19 04:57:13;;;;;;;13.55;10.35;;;;;;;;;;4993145;28;20046;-71
2021/09/19 04:59:40;;;;;;;14.73;11.15;;;;;;;;;;4993178;28;20081;-71
2021/09/19 05:02:06;;;;;;;14.80;11.73;;;;;;;;;;4993185;28;20105;-71
2021/09/19 05:04:33;;;;;;;14.07;11.98;;;;;;;;;;4993055;28;20137;-71
2021/09/19 05:07:00;;;;;;;14.00;11.30;;;;;;;;;;4992694;28;20058;-71
2021/09/19 05:09:27;;;;;;;13.02;11.15;;;;;;;;;;4992804;28;20550;-71
2021/09/19 05:11:53;;;;;;;13.68;11.55;;;;;;;;;;4992735;28;20054;-71
2021/09/19 05:14:20;;;;;;;15.85;12.38;;;;;;;;;;4993143;28;20054;-71
2021/09/19 05:16:47;;;;;;;13.60;11.05;;;;;;;;;;4992655;28;20465;-71
2021/09/19 05:19:13;;;;;;;13.27;11.07;;;;;;;;;;4992981;28;20108;-71
2021/09/19 05:21:40;;;;;;;13.98;11.77;;;;;;;;;;4992734;28;20050;-71
2021/09/19 05:24:07;;;;;;;15.77;10.75;;;;;;;;;;4992772;28;20054;-71
2021/09/19 05:26:33;;;;;;;16.13;11.40;;;;;;;;;;4992543;28;20043;-71
2021/09/19 05:29:00;;;;;;;14.32;11.35;;;;;;;;;;4992405;28;20104;-71
2021/09/19 05:31:27;;;;;;;14.05;11.57;;;;;;;;;;4992579;28;20097;-71
2021/09/19 05:33:54;;;;;;;14.60;11.70;;;;;;;;;;4992473;28;20054;-71
2021/09/19 05:36:20;;;;;;;13.20;10.20;;;;;;;;;;4992459;28;20050;-71
2021/09/19 05:38:47;;;;;;;13.95;12.05;;;;;;;;;;4992377;28;20112;-71
2021/09/19 05:41:14;;;;;;;14.00;11.45;;;;;;;;;;4992339;28;20497;-71
2021/09/19 05:43:40;;;;;;;15.98;11.27;;;;;;;;;;4992424;28;20077;-71
2021/09/19 05:46:07;;;;;;;13.65;11.00;;;;;;;;;;4992478;28;20046;-71
2021/09/19 05:48:34;;;;;;;13.27;10.85;;;;;;;;;;4992349;28;20081;-71
2021/09/19 05:51:02;;;;;;;13.55;11.23;;;;;;;;;;4992138;28;20105;-71
2021/09/19 05:53:28;;;;;;;13.13;10.45;;;;;;;;;;4975303;28;20058;-71
2021/09/19 05:55:55;;;;;;;11.60;10.27;;;;;;;;;;4992186;28;20050;-71
2021/09/19 05:58:21;;;;;;;11.65;10.07;;;;;;;;;;4992351;28;20054;-70
2021/09/19 06:00:48;;;;;;;13.93;11.45;;;;;;;;;;4991973;28;20501;-70
2021/09/19 06:03:15;;;;;;;14.23;11.27;;;;;;;;;;4994331;28;20060;-70
2021/09/19 06:05:41;;;;;;;15.15;11.77;;;;;;;;;;4996120;28;20069;-70
2021/09/19 06:08:08;;;;;;;16.13;11.00;;;;;;;;;;4996255;28;20042;-70
2021/09/19 06:10:35;;;;;;;14.02;10.98;;;;;;;;;;4996079;28;20058;-70
2021/09/19 06:13:03;;;;;;;15.45;11.43;;;;;;;;;;4996298;28;20457;-70
2021/09/19 06:15:30;;;;;;;14.02;11.65;;;;;;;;;;4996163;28;20050;-70
2021/09/19 06:17:57;;;;;;;14.30;11.93;;;;;;;;;;4996054;28;20395;-70
2021/09/19 06:20:23;;;;;;;15.75;12.15;;;;;;;;;;4995984;28;20061;-70
2021/09/19 06:22:50;;;;;;;16.42;12.15;;;;;;;;;;4995941;28;20054;-70
2021/09/19 06:25:17;;;;;;;16.92;13.18;;;;;;;;;;4995945;28;20054;-70
2021/09/19 06:27:43;;;;;;;14.20;11.07;;;;;;;;;;4995849;28;20046;-70
2021/09/19 06:30:11;;;;;;;14.05;12.23;;;;;;;;;;4995691;28;20461;-71
2021/09/19 06:32:37;;;;;;;15.77;12.20;;;;;;;;;;4995735;28;20128;-71
2021/09/19 06:35:06;;;;;;;17.35;12.27;;;;;;;;;;4996049;28;20050;-71
2021/09/19 06:37:33;;;;;;;14.80;12.43;;;;;;;;;;4994772;28;20089;-71
2021/09/19 06:40:00;;;;;;;13.85;11.73;;;;;;;;;;4994414;28;20050;-69
2021/09/19 06:42:27;;;;;;;14.43;12.00;;;;;;;;;;4994490;28;20054;-68
2021/09/19 06:44:53;;;;;;;12.60;10.80;;;;;;;;;;4995450;28;20136;-68
2021/09/19 06:47:20;;;;;;;11.20;9.93;;;;;;;;;;4995499;28;20042;-68
2021/09/19 06:49:47;;;;;;;12.90;9.68;;;;;;;;;;4978094;28;20457;-69
2021/09/19 06:52:13;;;;;;;12.82;10.27;;;;;;;;;;4995543;28;20112;-68
2021/09/19 06:54:42;;;;;;;12.45;9.60;;;;;;;;;;4995328;28;20081;-68
2021/09/19 06:57:10;;;;;;;10.93;9.57;;;;;;;;;;4995480;28;20051;-68
2021/09/19 06:59:37;;;;;;;11.05;9.55;;;;;;;;;;4995190;28;20480;-68
2021/09/19 07:02:04;;;;;;;11.23;9.10;;;;;;;;;;4995254;28;20563;-68
2021/09/19 07:04:30;;;;;;;11.25;9.95;;;;;;;;;;4995325;28;20077;-69
2021/09/19 07:06:57;;;;;;;10.55;9.40;;;;;;;;;;5017621;23;20101;-64
2021/09/19 07:09:24;;;;;;;13.98;9.52;;;;;;;;;;4995173;28;20057;-63
2021/09/19 07:11:50;;;;;;;11.63;9.18;;;;;;;;;;4994960;28;20058;-63
2021/09/19 07:14:17;;;;;;;17.00;9.30;;;;;;;;;;4994714;28;20454;-64
2021/09/19 07:16:44;;;;;;;9.90;8.88;;;;;;;;;;4994801;28;20058;-64
2021/09/19 07:19:10;;;;;;;9.82;8.82;;;;;;;;;;4994882;28;20086;-63
2021/09/19 07:21:37;;;;;;;9.48;8.52;;;;;;;;;;4995219;28;20046;-63
2021/09/19 07:24:04;;;;;;;8.70;7.85;;;;;;;;;;4994831;28;20390;-63
2021/09/19 07:26:30;;;;;;;10.73;8.25;;;;;;;;;;4994748;28;20050;-64
2021/09/19 07:28:57;;;;;;;8.75;7.47;;;;;;;;;;4994528;28;20402;-64
2021/09/19 07:31:24;;;;;;;8.90;8.00;;;;;;;;;;4994952;28;20050;-63
2021/09/19 07:33:51;;;;;;;8.02;6.40;;;;;;;;;;4994652;28;20054;-64
2021/09/19 07:36:19;;;;;;;7.57;6.85;;;;;;;;;;4994794;28;20054;-64
2021/09/19 07:38:46;;;;;;;7.68;6.88;;;;;;;;;;4994527;28;20120;-63
2021/09/19 07:41:12;;;;;;;6.90;6.25;;;;;;;;;;4961474;28;20106;-64
2021/09/19 07:43:40;;;;;;;7.05;6.13;;;;;;;;;;4994426;28;20057;-64
2021/09/19 07:46:06;;;;;;;7.00;6.30;;;;;;;;;;4994598;28;20516;-64
2021/09/19 07:48:33;;;;;;;7.45;5.78;;;;;;;;;;4995012;28;20054;-64
2021/09/19 07:51:00;;;;;;;7.70;6.72;;;;;;;;;;4993926;28;20113;-64
2021/09/19 07:53:27;;;;;;;7.20;6.50;;;;;;;;;;4994675;28;20120;-64
2021/09/19 07:55:53;;;;;;;6.90;6.15;;;;;;;;;;4994322;28;20054;-65
2021/09/19 07:58:20;;;;;;;6.10;5.50;;;;;;;;;;4994431;28;20050;-64
2021/09/19 08:00:47;;;;;;;6.93;6.13;;;;;;;;;;4994024;28;20112;-64
2021/09/19 08:03:13;;;;;;;7.82;5.88;;;;;;;;;;4994442;28;20096;-64
2021/09/19 08:05:41;;;;;;;5.32;4.82;;;;;;;;;;4993884;28;20062;-64
2021/09/19 08:08:07;;;;;;;7.32;5.30;;;;;;;;;;4994025;28;20047;-64
2021/09/19 08:10:34;;;;;;;5.38;4.88;;;;;;;;;;4993721;28;20054;-64
2021/09/19 08:13:01;;;;;;;5.68;5.18;;;;;;;;;;4994015;28;20062;-65
2021/09/19 08:15:27;;;;;;;6.18;5.15;;;;;;;;;;4993914;28;20104;-65
2021/09/19 08:17:54;;;;;;;7.18;5.40;;;;;;;;;;4993985;28;20493;-64
2021/09/19 08:20:21;;;;;;;8.35;6.22;;;;;;;;;;4993636;28;20517;-64
2021/09/19 08:22:47;;;;;;;5.95;5.30;;;;;;;;;;4993975;28;20050;-65
2021/09/19 08:25:15;;;;;;;5.95;5.20;;;;;;;;;;4992958;28;20054;-64
2021/09/19 08:27:43;;;;;;;5.63;4.75;;;;;;;;;;4993536;28;20054;-64
2021/09/19 08:30:12;;;;;;;5.53;4.95;;;;;;;;;;4993605;28;20123;-65
2021/09/19 08:32:38;;;;;;;13.27;6.43;;;;;;;;;;4993705;28;20122;-65
2021/09/19 08:35:07;;;;;;;5.68;4.45;;;;;;;;;;4976608;28;20054;-64
2021/09/19 08:37:33;;;;;;;13.10;6.45;;;;;;;;;;4993534;28;20051;-65
2021/09/19 08:40:00;;;;;;;8.05;5.10;;;;;;;;;;4993287;28;20133;-64
2021/09/19 08:42:27;;;;;;;5.05;4.53;;;;;;;;;;4993463;28;20058;-64
2021/09/19 08:44:54;;;;;;;11.38;6.18;;;;;;;;;;4993373;28;20062;-64
2021/09/19 08:47:21;;;;;;;7.00;4.72;;;;;;;;;;4993285;28;20065;-64
2021/09/19 08:49:47;;;;;;;8.65;5.30;;;;;;;;;;4993093;28;20053;-64
2021/09/19 08:52:14;;;;;;;6.03;4.30;;;;;;;;;;4993311;28;20047;-65
2021/09/19 08:54:41;;;;;;;5.85;4.53;;;;;;;;;;4993231;28;20104;-64
2021/09/19 08:57:07;;;;;;;7.53;4.82;;;;;;;;;;4993225;28;20054;-64
2021/09/19 08:59:49;;;;;;;5.50;4.72;;;;;;;;;;4993117;28;20058;-64
2021/09/19 09:02:16;;;;;;;10.93;5.30;;;;;;;;;;4993254;28;20201;-65
2021/09/19 09:04:44;;;;;;;6.97;4.47;;;;;;;;;;4993017;28;20051;-65
2021/09/19 09:07:13;;;;;;;4.53;4.13;;;;;;;;;;4992752;28;20101;-64
2021/09/19 09:09:56;;;;;;;5.93;4.20;;;;;;;;;;4992691;28;20100;-65
2021/09/19 09:12:24;;;;;;;4.63;3.90;;;;;;;;;;4992969;28;20050;-65
2021/09/19 09:14:54;;;;;;;6.32;4.20;;;;;;;;;;4992843;28;20101;-65
2021/09/19 09:17:23;;;;;;;6.00;3.67;;;;;;;;;;4992801;28;20512;-65
2021/09/19 09:19:54;;;;;;;4.18;3.75;;;;;;;;;;4992586;28;20058;-65
2021/09/19 09:22:22;;;;;;;4.03;3.63;;;;;;;;;;4992823;28;20050;-65
2021/09/19 09:25:15;;;;;;;3.92;3.00;;;;;;;;;;4992760;28;20050;-65
2021/09/19 09:27:47;;;;;;;6.85;4.32;;;;;;;;;;4992593;28;20124;-65
2021/09/19 09:30:22;;;;;;;3.50;3.20;;;;;;;;;;4992618;28;20125;-64
2021/09/19 09:32:55;;;;;;;4.13;3.72;;;;;;;;;;4992568;28;20050;-65
2021/09/19 09:35:30;;;;;;;3.40;3.10;;;;;;;;;;4992634;28;20101;-65
2021/09/19 09:37:57;;;;;;;4.05;3.65;;;;;;;;;;4992236;28;20050;-65
2021/09/19 09:40:32;;;;;;;7.13;3.90;;;;;;;;;;4975137;28;20058;-64
2021/09/19 09:43:08;;;;;;;4.70;3.60;;;;;;;;;;4992407;28;20054;-64
2021/09/19 09:45:37;;;;;;;4.57;3.28;;;;;;;;;;4992477;28;20050;-64
2021/09/19 09:48:23;;;;;;;3.83;3.42;;;;;;;;;;4992437;28;20402;-65
2021/09/19 09:50:58;;;;;;;3.65;3.35;;;;;;;;;;4977368;28;20055;-65
2021/09/19 09:53:25;;;;;;;3.33;3.03;;;;;;;;;;4992424;28;20054;-64
2021/09/19 09:55:53;;;;;;;3.78;3.33;;;;;;;;;;4992167;28;20058;-65
2021/09/19 09:58:21;;;;;;;3.40;3.10;;;;;;;;;;4992351;28;20054;-65
2021/09/19 10:00:54;;;;;;;4.30;3.42;;;;;;;;;;4991984;28;20085;-65
2021/09/19 10:03:21;;;;;;;3.67;3.38;;;;;;;;;;4992459;28;20054;-65
2021/09/19 10:05:48;;;;;;;3.85;3.20;;;;;;;;;;4991931;28;20050;-65
2021/09/19 10:08:14;;;;;;;3.35;3.05;;;;;;;;;;4992319;28;20047;-65
2021/09/19 10:10:43;;;;;;;3.58;3.28;;;;;;;;;;4992003;28;20101;-64
2021/09/19 10:13:12;;;;;;;5.10;3.13;;;;;;;;;;4992210;28;20108;-65
2021/09/19 10:15:38;;;;;;;3.70;2.95;;;;;;;;;;4992138;28;20062;-65
2021/09/19 10:18:05;;;;;;;4.30;3.30;;;;;;;;;;4992281;28;20453;-65
2021/09/19 10:20:40;;;;;;;3.00;2.72;;;;;;;;;;4991828;28;20120;-65
2021/09/19 10:23:21;;;;;;;3.30;3.00;;;;;;;;;;4975180;28;20469;-65
2021/09/19 10:25:54;;;;;;;3.35;3.05;;;;;;;;;;4974821;28;20560;-65
2021/09/19 10:28:40;;;;;;;3.70;3.30;;;;;;;;;;4992017;28;20046;-65
2021/09/19 10:31:19;;;;;;;3.40;2.88;;;;;;;;;;4992131;28;20058;-65
2021/09/19 10:33:51;;;;;;;4.93;3.10;;;;;;;;;;4992033;28;20050;-64
2021/09/19 10:36:44;;;;;;;3.30;3.00;;;;;;;;;;4991906;28;20050;-64
2021/09/19 10:39:26;;;;;;;4.20;3.42;;;;;;;;;;4992010;28;20456;-64
2021/09/19 10:42:17;;;;;;;3.42;3.13;;;;;;;;;;4991844;28;20448;-64
2021/09/19 10:44:50;;;;;;;3.20;2.90;;;;;;;;;;4984739;28;20054;-63
2021/09/19 10:47:22;;;;;;;4.88;4.38;;;;;;;;;;4992004;28;20054;-63
2021/09/19 10:49:49;;;;;;;5.13;4.57;;;;;;;;;;4994166;28;20050;-63
2021/09/19 10:52:18;;;;;;;4.72;3.03;;;;;;;;;;4995491;28;20046;-63
2021/09/19 10:54:52;;;;;;;4.63;2.85;;;;;;;;;;4995706;28;20050;-64
2021/09/19 10:57:26;;;;;;;3.47;3.00;;;;;;;;;;4995531;28;20113;-63
2021/09/19 11:00:11;;;;;;;5.18;3.22;;;;;;;;;;4995150;28;20046;-64
2021/09/19 11:02:39;;;;;;;5.60;3.45;;;;;;;;;;4995267;28;20050;-65
2021/09/19 11:05:22;;;;;;;4.38;3.40;;;;;;;;;;4995237;28;20082;-65
2021/09/19 11:07:50;;;;;;;4.05;3.65;;;;;;;;;;4995182;28;20054;-65
2021/09/19 11:10:17;;;;;;;4.03;3.50;;;;;;;;;;4995035;28;20501;-65
2021/09/19 11:12:46;;;;;;;3.63;3.30;;;;;;;;;;4995111;28;20050;-65
2021/09/19 11:15:17;;;;;;;3.92;3.53;;;;;;;;;;4995260;28;20054;-65
2021/09/19 11:17:48;;;;;;;3.92;3.30;;;;;;;;;;4978109;28;20570;-65
2021/09/19 11:20:16;;;;;;;4.35;3.63;;;;;;;;;;4994951;28;20146;-65
2021/09/19 11:22:45;;;;;;;4.32;3.92;;;;;;;;;;4994941;28;20058;-65
2021/09/19 11:25:13;;;;;;;4.80;3.78;;;;;;;;;;4995011;28;20110;-65
2021/09/19 11:27:41;;;;;;;3.53;3.20;;;;;;;;;;4994670;28;20046;-66
2021/09/19 11:30:09;;;;;;;3.20;2.90;;;;;;;;;;4994559;28;20485;-65
2021/09/19 11:32:37;;;;;;;3.08;2.85;;;;;;;;;;4994752;28;20058;-64
2021/09/19 11:35:05;;;;;;;3.15;2.83;;;;;;;;;;4994904;28;20545;-65
2021/09/19 11:37:32;;;;;;;3.60;3.05;;;;;;;;;;4977395;28;20089;-65
2021/09/19 11:39:59;;;;;;;3.50;3.10;;;;;;;;;;4994499;28;20048;-64
2021/09/19 11:42:27;;;;;;;3.58;2.80;;;;;;;;;;4994690;28;20517;-65
2021/09/19 11:44:55;;;;;;;3.95;3.10;;;;;;;;;;4994603;28;20050;-65
2021/09/19 11:47:23;;;;;;;3.05;2.72;;;;;;;;;;4994695;28;20113;-64
2021/09/19 11:49:52;;;;;;;4.13;3.08;;;;;;;;;;4994134;28;20093;-65
2021/09/19 11:52:20;;;;;;;4.93;3.25;;;;;;;;;;4994528;28;20046;-65
2021/09/19 11:54:47;;;;;;;3.30;3.00;;;;;;;;;;4977051;28;20054;-65
2021/09/19 11:57:14;;;;;;;5.32;3.15;;;;;;;;;;4994417;28;20120;-65
2021/09/19 11:59:45;;;;;;;4.53;3.85;;;;;;;;;;4994052;28;20047;-65
2021/09/19 12:02:14;;;;;;;4.00;3.40;;;;;;;;;;4994391;28;20054;-65
2021/09/19 12:04:42;;;;;;;3.40;3.10;;;;;;;;;;4994100;28;20058;-65
2021/09/19 12:07:13;;;;;;;3.10;2.78;;;;;;;;;;4994164;28;20054;-65
2021/09/19 12:09:47;;;;;;;3.75;3.40;;;;;;;;;;4993694;28;20053;-65
2021/09/19 12:12:14;;;;;;;3.95;3.65;;;;;;;;;;4976829;28;20054;-65
2021/09/19 12:14:46;;;;;;;3.53;2.88;;;;;;;;;;4993965;28;20058;-65
2021/09/19 12:17:13;;;;;;;3.15;2.63;;;;;;;;;;4993967;28;20058;-65
2021/09/19 12:19:41;;;;;;;2.83;2.58;;;;;;;;;;4993728;28;20047;-65
2021/09/19 12:22:15;;;;;;;5.30;3.13;;;;;;;;;;4993905;28;20105;-65
2021/09/19 12:24:42;;;;;;;2.85;2.55;;;;;;;;;;4993782;28;20101;-65
2021/09/19 12:27:19;;;;;;;3.33;3.03;;;;;;;;;;4993874;28;20069;-65
2021/09/19 12:30:16;;;;;;;2.80;2.60;;;;;;;;;;4993357;28;20042;-64
2021/09/19 12:32:52;;;;;;;2.90;2.70;;;;;;;;;;4993613;28;20105;-65
2021/09/19 12:35:27;;;;;;;3.25;2.72;;;;;;;;;;4993552;28;20403;-65
2021/09/19 12:38:03;;;;;;;2.70;2.50;;;;;;;;;;4993452;28;20061;-65
2021/09/19 12:40:30;;;;;;;3.80;2.78;;;;;;;;;;4993444;28;20108;-65
2021/09/19 12:43:11;;;;;;;2.88;2.67;;;;;;;;;;4993476;28;20092;-65
2021/09/19 12:45:41;;;;;;;3.35;3.05;;;;;;;;;;4993364;28;20057;-64
2021/09/19 12:48:08;;;;;;;3.15;2.65;;;;;;;;;;4993864;28;20104;-65
2021/09/19 12:50:35;;;;;;;3.17;2.90;;;;;;;;;;4993417;28;20518;-65
2021/09/19 12:53:02;;;;;;;2.72;2.45;;;;;;;;;;4993303;28;20050;-64
2021/09/19 12:55:30;;;;;;;2.85;2.65;;;;;;;;;;4976110;28;20050;-65
2021/09/19 12:57:57;;;;;;;3.88;3.20;;;;;;;;;;4993205;28;20062;-64
2021/09/19 13:00:24;;;;;;;3.55;3.25;;;;;;;;;;4993078;28;20050;-64
2021/09/19 13:03:05;;;;;;;4.35;3.47;;;;;;;;;;4993317;28;20089;-64
2021/09/19 13:05:33;;;;;;;3.42;3.13;;;;;;;;;;4992966;28;20505;-65
2021/09/19 13:08:00;;;;;;;3.25;2.95;;;;;;;;;;4993611;28;20509;-64
2021/09/19 13:10:28;;;;;;;3.47;3.17;;;;;;;;;;4993037;28;20042;-65
2021/09/19 13:12:54;;;;;;;2.90;2.65;;;;;;;;;;4992576;28;20109;-64
2021/09/19 13:15:23;;;;;;;4.20;2.80;;;;;;;;;;4992895;28;20100;-65
2021/09/19 13:17:50;;;;;;;3.70;3.33;;;;;;;;;;4992686;28;20496;-65
2021/09/19 13:20:17;;;;;;;3.17;2.88;;;;;;;;;;4992760;28;20054;-65
2021/09/19 13:22:44;;;;;;;3.42;3.13;;;;;;;;;;4993111;28;20101;-66
2021/09/19 13:25:12;;;;;;;3.30;3.00;;;;;;;;;;4992962;28;20057;-64
2021/09/19 13:27:38;;;;;;;2.50;2.30;;;;;;;;;;4993406;28;20490;-65
2021/09/19 13:30:06;;;;;;;3.10;2.80;;;;;;;;;;4992625;28;20564;-65
2021/09/19 13:32:33;;;;;;;4.78;2.70;;;;;;;;;;4992767;28;20113;-65
2021/09/19 13:35:00;;;;;;;3.03;2.72;;;;;;;;;;4992729;28;20081;-65
2021/09/19 13:37:27;;;;;;;3.33;2.55;;;;;;;;;;4992563;28;20054;-65
2021/09/19 13:39:53;;;;;;;3.65;2.70;;;;;;;;;;4992319;28;20465;-64
2021/09/19 13:42:20;;;;;;;2.90;2.70;;;;;;;;;;4992636;28;20097;-64
2021/09/19 13:44:46;;;;;;;2.58;2.38;;;;;;;;;;4992453;28;20050;-65
2021/09/19 13:47:13;;;;;;;3.92;3.55;;;;;;;;;;4992452;28;20112;-64
2021/09/19 13:49:40;;;;;;;2.65;2.45;;;;;;;;;;4959042;28;20092;-65
2021/09/19 13:52:07;;;;;;;3.55;3.25;;;;;;;;;;4992618;28;20050;-65
2021/09/19 13:54:33;;;;;;;6.57;3.13;;;;;;;;;;4992688;28;20458;-65
2021/09/19 13:57:00;;;;;;;3.15;2.85;;;;;;;;;;4992205;28;20087;-64
2021/09/19 13:59:27;;;;;;;3.50;3.20;;;;;;;;;;4992123;28;20088;-64
2021/09/19 14:01:53;;;;;;;3.10;2.80;;;;;;;;;;4992145;28;20054;-63
2021/09/19 14:04:21;;;;;;;3.08;2.88;;;;;;;;;;4992484;28;20062;-63
2021/09/19 14:06:47;;;;;;;2.85;2.65;;;;;;;;;;4992040;28;20402;-64
2021/09/19 14:09:14;;;;;;;4.32;3.25;;;;;;;;;;4992100;28;20053;-65
2021/09/19 14:11:46;;;;;;;4.32;2.45;;;;;;;;;;4992068;28;20556;-65
2021/09/19 14:14:12;;;;;;;3.40;2.80;;;;;;;;;;4992404;28;20105;-64
2021/09/19 14:16:39;;;;;;;3.38;3.00;;;;;;;;;;4992129;28;20050;-65
2021/09/19 14:19:06;;;;;;;3.38;2.67;;;;;;;;;;4992115;28;20122;-64
2021/09/19 14:21:33;;;;;;;2.97;2.72;;;;;;;;;;4992227;28;20069;-63
2021/09/19 14:24:01;;;;;;;3.03;2.42;;;;;;;;;;4993672;28;20050;-62
2021/09/19 14:26:27;;;;;;;3.13;2.83;;;;;;;;;;4978770;28;20057;-66
2021/09/19 14:28:55;;;;;;;2.95;2.63;;;;;;;;;;4978397;28;20125;-65
2021/09/19 14:31:21;;;;;;;3.00;2.70;;;;;;;;;;4996027;28;20050;-65
2021/09/19 14:33:48;;;;;;;3.33;2.60;;;;;;;;;;4995885;28;20069;-65
2021/09/19 14:36:15;;;;;;;3.25;2.90;;;;;;;;;;4995883;28;20509;-64